Time;durP1;ratioP1;P1;durP2;ratioP2;P2;SDS_P1;SDS_P2;PMS_P1;PMS_P2;Temp;Humidity;BMP_temperature;BMP_pressure;BME280_temperature;BME280_humidity;BME280_pressure;Samples;Min_cycle;Max_cycle;Signal;HPM_P1;HPM_P2
2024/01/23 00:01:33;;;;;;;5.28;1.77;;;;;;;7.65;90.12;101791.78;5056585;27;97418;-27
2024/01/23 00:04:00;;;;;;;2.90;0.93;;;;;;;7.66;90.49;101796.28;5056047;27;98702;-27
2024/01/23 00:06:25;;;;;;;2.92;0.98;;;;;;;7.69;90.44;101800.69;5054702;27;101182;-27
2024/01/23 00:08:52;;;;;;;2.65;0.88;;;;;;;7.68;90.42;101798.94;5056661;27;96622;-27
2024/01/23 00:11:17;;;;;;;1.60;0.45;;;;;;;7.66;90.22;101805.22;5055513;27;96875;-27
2024/01/23 00:13:45;;;;;;;1.30;0.30;;;;;;;7.64;90.20;101825.97;5056219;27;100047;-27
2024/01/23 00:16:10;;;;;;;0.32;0.20;;;;;;;7.65;90.53;101832.25;5056154;27;97795;-27
2024/01/23 00:18:36;;;;;;;1.25;0.38;;;;;;;7.64;90.28;101831.38;5055932;27;96643;-28
2024/01/23 00:21:01;;;;;;;1.83;0.13;;;;;;;7.56;89.94;101832.56;5056216;27;96873;-27
2024/01/23 00:23:26;;;;;;;8.25;0.73;;;;;;;7.61;90.51;101841.38;5055861;27;100971;-27
2024/01/23 00:25:53;;;;;;;5.03;0.98;;;;;;;7.59;90.56;101827.06;5055974;27;97990;-27
2024/01/23 00:28:18;;;;;;;6.63;0.47;;;;;;;7.60;90.31;101842.31;5054834;27;96714;-27
2024/01/23 00:30:44;;;;;;;3.17;0.52;;;;;;;7.54;89.99;101839.81;5056369;27;96891;-27
2024/01/23 00:33:10;;;;;;;5.25;0.95;;;;;;;7.50;90.27;101843.53;5055633;27;99267;-27
2024/01/23 00:35:35;;;;;;;0.28;0.20;;;;;;;7.51;89.87;101857.00;5054729;27;101344;-27
2024/01/23 00:38:01;;;;;;;2.78;0.50;;;;;;;7.45;90.39;101854.47;5056072;27;96722;-27
2024/01/23 00:40:26;;;;;;;0.70;0.43;;;;;;;7.43;89.97;101868.00;5054597;27;96891;-27
2024/01/23 00:42:51;;;;;;;0.28;0.20;;;;;;;7.45;90.27;101873.34;5054517;27;98814;-27
2024/01/23 00:45:17;;;;;;;3.67;0.52;;;;;;;7.45;89.94;101876.03;5055553;27;99958;-28
2024/01/23 00:47:42;;;;;;;0.90;0.52;;;;;;;7.40;89.48;101899.56;5056484;27;96568;-27
2024/01/23 00:50:08;;;;;;;9.43;1.05;;;;;;;7.40;90.13;101900.44;5055438;27;96892;-27
2024/01/23 00:52:33;;;;;;;1.80;0.52;;;;;;;7.37;89.73;101887.06;5055270;27;99200;-27
2024/01/23 00:55:02;;;;;;;2.40;0.30;;;;;;;7.40;89.95;101880.69;5055002;27;101033;-27
2024/01/23 00:57:28;;;;;;;2.40;0.98;;;;;;;7.41;89.92;101883.38;5055215;27;96708;-26
2024/01/23 00:59:53;;;;;;;0.55;0.32;;;;;;;7.37;89.49;101883.50;5056160;27;96756;-26
2024/01/23 01:02:19;;;;;;;6.90;0.70;;;;;;;7.37;89.60;101880.81;5055557;27;97832;-27
2024/01/23 01:04:46;;;;;;;0.65;0.40;;;;;;;7.33;89.72;101884.53;5055063;27;97124;-27
2024/01/23 01:07:15;;;;;;;0.22;0.22;;;;;;;7.31;89.98;101899.84;5055018;27;96634;-27
2024/01/23 01:09:40;;;;;;;2.05;0.73;;;;;;;7.34;89.95;101906.03;5054007;27;96839;-27
2024/01/23 01:12:06;;;;;;;0.25;0.13;;;;;;;7.35;90.06;101905.09;5053645;27;101441;-27
2024/01/23 01:14:33;;;;;;;1.23;0.55;;;;;;;7.28;90.14;101905.34;5054983;27;99031;-27
2024/01/23 01:16:59;;;;;;;1.55;0.20;;;;;;;7.29;89.91;101912.50;5054127;27;96589;-27
2024/01/23 01:19:24;;;;;;;2.55;0.35;;;;;;;7.31;90.06;101932.19;5055171;27;96718;-26
2024/01/23 01:21:49;;;;;;;3.42;0.60;;;;;;;7.33;90.19;101938.44;5055190;27;97884;-27
2024/01/23 01:24:15;;;;;;;2.58;0.68;;;;;;;7.35;90.57;101931.19;5055447;27;97223;-27
2024/01/23 01:26:40;;;;;;;0.77;0.38;;;;;;;7.33;90.50;101927.66;5055438;27;96581;-26
2024/01/23 01:29:06;;;;;;;0.45;0.25;;;;;;;7.32;90.67;101937.56;5055181;27;96800;-27
2024/01/23 01:31:31;;;;;;;1.65;0.28;;;;;;;7.29;91.07;101932.22;5054340;27;99390;-27
2024/01/23 01:33:57;;;;;;;2.30;0.82;;;;;;;7.23;91.07;101925.22;5054880;27;97306;-28
2024/01/23 01:36:22;;;;;;;1.30;0.52;;;;;;;7.26;91.44;101932.34;5055252;27;96559;-28
2024/01/23 01:38:47;;;;;;;1.27;0.32;;;;;;;7.22;91.61;101938.72;5055108;27;96810;-27
2024/01/23 01:41:13;;;;;;;3.50;0.57;;;;;;;7.25;91.76;101951.25;5054758;27;99299;-28
2024/01/23 01:43:38;;;;;;;4.15;1.58;;;;;;;7.22;91.43;101938.72;5054868;27;97885;-28
2024/01/23 01:46:15;;;;;;;0.57;0.32;;;;;;;7.25;91.58;101948.56;5055241;27;96612;-27
2024/01/23 01:48:42;;;;;;;1.20;0.55;;;;;;;7.22;91.81;101965.69;5054055;27;96738;-28
2024/01/23 01:51:08;;;;;;;5.95;1.30;;;;;;;7.24;91.98;101974.59;5053233;27;100975;-26
2024/01/23 01:53:34;;;;;;;4.90;0.98;;;;;;;7.18;91.81;101959.50;5053206;27;100948;-28
2024/01/23 01:56:02;;;;;;;2.35;1.00;;;;;;;7.25;91.77;101968.31;5056404;27;96669;-27
2024/01/23 01:58:30;;;;;;;1.77;0.70;;;;;;;7.21;91.70;101972.00;5053188;27;96862;-27
2024/01/23 02:00:57;;;;;;;7.38;0.63;;;;;;;7.20;91.50;101973.81;5056589;27;100814;-27
2024/01/23 02:03:23;;;;;;;6.57;1.02;;;;;;;7.13;91.23;101980.31;5056829;27;100915;-27
2024/01/23 02:05:49;;;;;;;2.35;0.73;;;;;;;7.21;91.26;101986.34;5058531;27;96650;-27
2024/01/23 02:08:16;;;;;;;1.23;0.22;;;;;;;7.18;91.32;101993.66;5057134;27;96775;-27
2024/01/23 02:10:42;;;;;;;0.57;0.35;;;;;;;7.20;91.45;101991.81;5056574;27;101244;-27
2024/01/23 02:13:08;;;;;;;2.78;0.60;;;;;;;7.14;91.33;101998.25;5058603;27;97867;-27
2024/01/23 02:15:34;;;;;;;0.55;0.40;;;;;;;7.15;91.34;102000.03;5058376;27;96571;-28
2024/01/23 02:17:59;;;;;;;2.85;0.40;;;;;;;7.08;91.28;102011.91;5058438;27;96496;-27
2024/01/23 02:20:25;;;;;;;0.88;0.45;;;;;;;7.11;91.33;102013.63;5057418;27;99586;-27
2024/01/23 02:22:51;;;;;;;2.92;1.00;;;;;;;7.10;91.26;102028.88;5056506;27;100847;-27
2024/01/23 02:25:16;;;;;;;1.95;0.90;;;;;;;7.06;91.46;102020.97;5057942;27;96708;-28
2024/01/23 02:27:41;;;;;;;5.00;1.05;;;;;;;7.03;91.36;102027.28;5058019;27;96774;-27
2024/01/23 02:30:07;;;;;;;1.35;0.43;;;;;;;7.10;91.25;102034.28;5057922;27;100421;-27
2024/01/23 02:32:33;;;;;;;1.77;0.52;;;;;;;7.11;91.07;102063.00;5056324;27;99274;-27
2024/01/23 02:34:58;;;;;;;3.05;0.30;;;;;;;7.05;91.56;102068.53;5057799;27;96654;-27
2024/01/23 02:37:23;;;;;;;2.15;0.32;;;;;;;7.01;91.12;102074.97;5058544;27;96785;-26
2024/01/23 02:39:49;;;;;;;2.72;0.93;;;;;;;7.05;91.56;102068.53;5057842;27;97890;-27
2024/01/23 02:42:14;;;;;;;4.07;0.45;;;;;;;7.04;90.76;102055.13;5057553;27;97369;-27
2024/01/23 02:44:45;;;;;;;0.65;0.43;;;;;;;7.06;90.80;102064.06;5057119;27;96649;-27
2024/01/23 02:47:10;;;;;;;0.73;0.35;;;;;;;7.08;90.20;102084.66;5056527;27;96741;-27
2024/01/23 02:49:36;;;;;;;5.20;0.70;;;;;;;7.06;90.37;102078.41;5057562;27;98057;-27
2024/01/23 02:52:03;;;;;;;9.23;1.02;;;;;;;7.01;90.63;102083.03;5057377;27;97788;-27
2024/01/23 02:54:30;;;;;;;1.70;0.63;;;;;;;7.05;90.47;102092.78;5057088;27;96792;-28
2024/01/23 02:56:55;;;;;;;0.93;0.32;;;;;;;7.01;89.63;102089.31;5057272;27;96788;-27
2024/01/23 02:59:20;;;;;;;0.20;0.17;;;;;;;7.01;89.67;102101.91;5057182;27;97837;-27
2024/01/23 03:01:46;;;;;;;1.70;0.70;;;;;;;6.93;89.50;102101.19;5057519;27;99576;-27
2024/01/23 03:04:11;;;;;;;8.80;0.73;;;;;;;6.95;89.70;102102.94;5057684;27;96669;-27
2024/01/23 03:06:36;;;;;;;9.40;0.65;;;;;;;6.92;89.07;102110.22;5057325;27;96793;-27
2024/01/23 03:09:02;;;;;;;4.18;0.90;;;;;;;6.95;89.21;102129.88;5056485;27;99061;-27
2024/01/23 03:11:28;;;;;;;0.30;0.20;;;;;;;6.92;88.98;102127.25;5057010;27;99167;-27
2024/01/23 03:13:54;;;;;;;1.35;0.40;;;;;;;6.94;89.02;102130.81;5057416;27;96521;-27
2024/01/23 03:16:19;;;;;;;6.03;0.52;;;;;;;6.92;87.84;102135.34;5055964;27;96857;-27
2024/01/23 03:18:46;;;;;;;4.32;0.93;;;;;;;7.00;88.35;102154.00;5057084;27;97925;-27
2024/01/23 03:21:11;;;;;;;0.80;0.45;;;;;;;6.93;88.52;102160.47;5055672;27;101235;-27
2024/01/23 03:23:37;;;;;;;4.80;0.90;;;;;;;6.91;88.43;102162.31;5056967;27;96733;-27
2024/01/23 03:26:02;;;;;;;0.47;0.25;;;;;;;6.89;88.64;102150.69;5057635;27;96760;-27
2024/01/23 03:28:28;;;;;;;9.13;0.70;;;;;;;6.89;88.38;102154.28;5056425;27;99618;-27
2024/01/23 03:30:53;;;;;;;2.92;1.05;;;;;;;6.92;87.67;102164.09;5056812;27;99247;-27
2024/01/23 03:33:19;;;;;;;0.98;0.30;;;;;;;6.86;87.58;102165.09;5056419;27;97695;-27
2024/01/23 03:35:44;;;;;;;0.00;0.00;;;;;;;6.86;88.47;102154.34;5056963;27;96653;-27
2024/01/23 03:38:11;;;;;;;0.40;0.30;;;;;;;6.90;88.31;102168.63;5057137;27;97436;-27
2024/01/23 03:40:36;;;;;;;1.45;0.28;;;;;;;6.82;87.67;102168.81;5055338;27;98874;-27
2024/01/23 03:43:02;;;;;;;3.17;0.60;;;;;;;6.81;88.44;102172.41;5057115;27;96597;-27
2024/01/23 03:45:28;;;;;;;1.25;0.63;;;;;;;6.84;87.68;102188.53;5055550;27;96887;-27
2024/01/23 03:47:53;;;;;;;2.10;0.68;;;;;;;6.85;87.49;102190.28;5056681;27;98328;-27
2024/01/23 03:50:19;;;;;;;0.38;0.30;;;;;;;6.84;88.25;102203.78;5056812;27;99162;-27
2024/01/23 03:52:44;;;;;;;0.60;0.28;;;;;;;6.83;88.25;102207.41;5057003;27;96721;-27
2024/01/23 03:55:11;;;;;;;0.25;0.20;;;;;;;6.84;88.26;102209.16;5055982;27;96805;-27
2024/01/23 03:57:36;;;;;;;0.30;0.15;;;;;;;6.81;88.17;102207.44;5055374;27;99491;-28
2024/01/23 04:00:03;;;;;;;2.30;0.57;;;;;;;6.79;87.38;102203.88;5056254;27;98863;-27
2024/01/23 04:02:31;;;;;;;1.50;0.70;;;;;;;6.76;87.92;102196.75;5055272;27;96673;-27
2024/01/23 04:04:56;;;;;;;0.47;0.28;;;;;;;6.75;87.21;102207.59;5056713;27;96853;-27
2024/01/23 04:07:21;;;;;;;3.65;0.85;;;;;;;6.79;87.47;102214.66;5054790;27;101364;-27
2024/01/23 04:09:47;;;;;;;0.63;0.20;;;;;;;6.80;87.06;102233.47;5055897;27;103814;-27
2024/01/23 04:12:12;;;;;;;1.10;0.45;;;;;;;6.81;87.14;102232.53;5056415;27;96633;-27
2024/01/23 04:14:37;;;;;;;2.38;0.63;;;;;;;6.75;87.24;102226.44;5056534;27;96779;-27
2024/01/23 04:17:03;;;;;;;3.78;0.68;;;;;;;6.79;87.18;102233.50;5055259;27;98809;-27
2024/01/23 04:19:28;;;;;;;0.90;0.55;;;;;;;6.75;87.51;102242.59;5056033;27;97418;-28
2024/01/23 04:21:54;;;;;;;1.58;0.57;;;;;;;6.77;87.60;102247.03;5055569;27;96540;-27
2024/01/23 04:24:19;;;;;;;1.10;0.50;;;;;;;6.72;88.19;102248.94;5056137;27;96940;-28
2024/01/23 04:26:48;;;;;;;3.00;0.45;;;;;;;6.75;87.81;102270.41;5055960;27;98877;-27
2024/01/23 04:29:13;;;;;;;0.70;0.28;;;;;;;6.80;87.94;102284.66;5054387;27;100849;-27
2024/01/23 04:31:39;;;;;;;1.60;0.65;;;;;;;6.76;88.24;102279.38;5056017;27;96749;-27
2024/01/23 04:34:04;;;;;;;0.55;0.22;;;;;;;6.75;88.57;102288.38;5056158;27;96875;-27
2024/01/23 04:36:30;;;;;;;0.75;0.55;;;;;;;6.71;88.88;102286.66;5056100;27;97407;-27
2024/01/23 04:38:55;;;;;;;3.22;0.40;;;;;;;6.72;88.73;102302.81;5054740;27;100963;-27
2024/01/23 04:41:22;;;;;;;1.33;0.85;;;;;;;6.65;89.69;102295.78;5055928;27;96642;-27
2024/01/23 04:43:47;;;;;;;2.45;0.47;;;;;;;6.63;90.15;102292.22;5055905;27;96808;-27
2024/01/23 04:46:13;;;;;;;0.82;0.15;;;;;;;6.61;90.05;102293.19;5055288;27;97558;-27
2024/01/23 04:48:38;;;;;;;5.18;0.35;;;;;;;6.64;90.06;102295.81;5055725;27;97296;-27
2024/01/23 04:51:04;;;;;;;4.70;1.27;;;;;;;6.60;89.99;102303.03;5055763;27;96713;-27
2024/01/23 04:53:32;;;;;;;4.15;0.55;;;;;;;6.66;90.27;102308.31;5055899;27;96899;-27
2024/01/23 04:55:58;;;;;;;0.43;0.32;;;;;;;6.65;90.36;102311.03;5053366;27;101046;-27
2024/01/23 04:58:23;;;;;;;3.58;0.45;;;;;;;6.68;89.88;102313.66;5053319;27;100816;-27
2024/01/23 05:00:48;;;;;;;0.55;0.38;;;;;;;6.58;89.76;102311.16;5056136;27;96556;-27
2024/01/23 05:03:14;;;;;;;0.40;0.17;;;;;;;6.61;89.95;102304.84;5055900;27;96806;-26
2024/01/23 05:05:39;;;;;;;0.73;0.35;;;;;;;6.65;90.18;102313.72;5055421;27;97923;-27
2024/01/23 05:08:05;;;;;;;2.38;0.60;;;;;;;6.52;90.10;102305.03;5055185;27;101712;-27
2024/01/23 05:10:30;;;;;;;6.45;0.85;;;;;;;6.64;90.22;102320.03;5054721;27;96676;-27
2024/01/23 05:12:55;;;;;;;3.80;0.45;;;;;;;6.62;90.06;102311.97;5055685;27;96784;-27
2024/01/23 05:15:21;;;;;;;10.70;0.70;;;;;;;6.70;90.31;102330.69;5055373;27;100700;-27
2024/01/23 05:17:46;;;;;;;3.58;0.52;;;;;;;6.65;90.22;102325.41;5055292;27;97859;-27
2024/01/23 05:20:11;;;;;;;4.20;1.52;;;;;;;6.61;90.10;102337.13;5055594;27;96501;-29
2024/01/23 05:22:37;;;;;;;1.67;0.45;;;;;;;6.68;89.97;102344.16;5055608;27;96721;-27
2024/01/23 05:25:05;;;;;;;1.65;0.45;;;;;;;6.66;90.04;102343.31;5054771;27;98073;-27
2024/01/23 05:27:30;;;;;;;1.55;0.30;;;;;;;6.62;90.03;102344.28;5053870;27;101338;-28
2024/01/23 05:29:56;;;;;;;3.78;0.43;;;;;;;6.65;90.07;102354.09;5054296;27;96613;-28
2024/01/23 05:32:21;;;;;;;0.38;0.17;;;;;;;6.64;89.95;102368.50;5055530;27;96772;-27
2024/01/23 05:34:46;;;;;;;3.22;0.25;;;;;;;6.64;89.80;102366.69;5054706;27;97450;-27
2024/01/23 05:37:12;;;;;;;0.30;0.30;;;;;;;6.63;89.83;102375.69;5054977;27;97269;-27
2024/01/23 05:39:38;;;;;;;1.00;0.50;;;;;;;6.61;89.56;102371.25;5055157;27;96573;-27
2024/01/23 05:42:05;;;;;;;0.98;0.30;;;;;;;6.60;89.74;102386.50;5055529;27;96740;-26
2024/01/23 05:44:31;;;;;;;0.20;0.08;;;;;;;6.56;89.54;102379.44;5053148;27;101010;-27
2024/01/23 05:46:56;;;;;;;1.17;0.43;;;;;;;6.65;89.40;102392.72;5054917;27;97978;-27
2024/01/23 05:49:21;;;;;;;2.05;0.45;;;;;;;6.67;89.61;102407.00;5055075;27;96661;-27
2024/01/23 05:51:47;;;;;;;0.00;0.00;;;;;;;6.66;89.37;102407.03;5055393;27;96841;-27
2024/01/23 05:54:12;;;;;;;3.58;0.55;;;;;;;6.65;90.06;102416.94;5054125;27;99317;-27
2024/01/23 05:56:38;;;;;;;3.92;1.13;;;;;;;6.59;89.50;102408.97;5054137;27;97888;-27
2024/01/23 05:59:03;;;;;;;1.10;0.20;;;;;;;6.59;89.80;102414.34;5054384;27;96552;-27
2024/01/23 06:01:31;;;;;;;2.30;0.35;;;;;;;6.57;89.86;102418.88;5055069;27;96728;-27
2024/01/23 06:03:56;;;;;;;0.43;0.43;;;;;;;6.59;89.95;102431.38;5052948;27;101279;-27
2024/01/23 06:06:22;;;;;;;2.55;0.50;;;;;;;6.54;90.11;102430.59;5054434;27;99338;-27
2024/01/23 06:08:47;;;;;;;0.52;0.10;;;;;;;6.51;89.87;102424.41;5054759;27;96587;-26
2024/01/23 06:11:13;;;;;;;0.00;0.00;;;;;;;6.46;89.88;102428.94;5054783;27;96939;-27
2024/01/23 06:13:39;;;;;;;4.18;0.40;;;;;;;6.51;90.09;102436.03;5053061;27;100892;-28
2024/01/23 06:16:05;;;;;;;0.70;0.45;;;;;;;6.53;89.82;102436.91;5055006;27;97802;-27
2024/01/23 06:18:31;;;;;;;8.18;0.93;;;;;;;6.52;89.81;102431.53;5054875;27;96500;-27
2024/01/23 06:20:59;;;;;;;2.40;0.68;;;;;;;6.57;89.69;102465.53;5054918;27;96729;-27
2024/01/23 06:23:25;;;;;;;1.63;0.52;;;;;;;6.52;89.85;102461.16;5052198;27;100925;-27
2024/01/23 06:25:50;;;;;;;0.10;0.10;;;;;;;6.48;89.83;102459.44;5054280;27;97412;-27
2024/01/23 06:28:16;;;;;;;0.63;0.13;;;;;;;6.49;90.00;102472.88;5054723;27;96574;-27
2024/01/23 06:30:42;;;;;;;0.80;0.35;;;;;;;6.41;89.84;102477.47;5054593;27;96784;-27
2024/01/23 06:33:07;;;;;;;1.80;0.93;;;;;;;6.49;90.27;102490.81;5054140;27;99250;-28
2024/01/23 06:35:33;;;;;;;5.10;0.82;;;;;;;6.41;90.12;102477.47;5054029;27;99427;-27
2024/01/23 06:37:58;;;;;;;0.77;0.47;;;;;;;6.48;90.28;102489.03;5054422;27;96646;-27
2024/01/23 06:40:23;;;;;;;1.90;0.73;;;;;;;6.44;90.67;102488.22;5056043;27;96824;-28
2024/01/23 06:42:48;;;;;;;0.55;0.40;;;;;;;6.46;90.51;102488.16;5057627;27;101797;-27
2024/01/23 06:45:14;;;;;;;0.82;0.38;;;;;;;6.43;90.78;102472.09;5057373;27;102903;-27
2024/01/23 06:47:40;;;;;;;1.08;0.55;;;;;;;6.40;90.38;102466.75;5057332;27;96463;-27
2024/01/23 06:50:06;;;;;;;2.08;0.90;;;;;;;6.42;90.74;102473.00;5057938;27;96786;-27
2024/01/23 06:52:31;;;;;;;0.73;0.47;;;;;;;6.40;90.77;102469.47;5057253;27;97462;-27
2024/01/23 06:54:56;;;;;;;6.57;1.23;;;;;;;6.35;90.83;102459.66;5057154;27;97430;-26
2024/01/23 06:57:22;;;;;;;0.47;0.13;;;;;;;6.40;90.85;102474.84;5057301;27;97028;-27
2024/01/23 06:59:47;;;;;;;2.95;0.20;;;;;;;6.35;91.17;102469.53;5057554;27;96942;-27
2024/01/23 07:02:12;;;;;;;2.70;0.68;;;;;;;6.33;90.96;102471.38;5055792;27;99498;-27
2024/01/23 07:04:40;;;;;;;7.13;0.73;;;;;;;6.29;91.27;102484.00;5057737;27;97782;-27
2024/01/23 07:07:05;;;;;;;9.90;0.63;;;;;;;6.27;91.29;102476.84;5056265;27;96656;-27
2024/01/23 07:09:30;;;;;;;0.70;0.50;;;;;;;6.28;91.10;102478.63;5057470;27;96860;-27
2024/01/23 07:11:56;;;;;;;1.40;0.52;;;;;;;6.31;91.22;102482.13;5056761;27;101558;-27
2024/01/23 07:14:21;;;;;;;3.85;0.55;;;;;;;6.31;91.02;102490.22;5057452;27;98637;-27
2024/01/23 07:16:46;;;;;;;1.88;0.63;;;;;;;6.24;90.98;102477.78;5057460;27;96461;-27
2024/01/23 07:19:12;;;;;;;0.25;0.17;;;;;;;6.30;90.98;102501.03;5057373;27;96839;-27
2024/01/23 07:21:40;;;;;;;1.00;0.73;;;;;;;6.26;90.96;102499.28;5056849;27;97447;-28
2024/01/23 07:24:07;;;;;;;0.45;0.38;;;;;;;6.20;90.97;102492.22;5055473;27;100041;-27
2024/01/23 07:26:32;;;;;;;0.45;0.45;;;;;;;6.19;91.15;102485.03;5055832;27;97277;-28
2024/01/23 07:28:58;;;;;;;3.15;1.10;;;;;;;6.11;91.30;102487.00;5057738;27;96763;-27
2024/01/23 07:31:23;;;;;;;0.95;0.73;;;;;;;6.14;91.31;102487.81;5056612;27;99493;-27
2024/01/23 07:33:50;;;;;;;0.38;0.22;;;;;;;6.15;91.60;102488.72;5056995;27;97212;-27
2024/01/23 07:36:15;;;;;;;1.77;0.75;;;;;;;6.12;91.28;102504.91;5056411;27;96605;-27
2024/01/23 07:38:40;;;;;;;0.40;0.25;;;;;;;6.06;91.65;102505.00;5057079;27;96790;-27
2024/01/23 07:41:06;;;;;;;1.92;0.82;;;;;;;6.01;92.10;102504.22;5055360;27;99617;-27
2024/01/23 07:43:31;;;;;;;1.63;0.60;;;;;;;5.97;91.93;102526.66;5056606;27;98686;-28
2024/01/23 07:45:56;;;;;;;2.33;0.63;;;;;;;5.89;92.41;102530.34;5056711;27;96551;-27
2024/01/23 07:48:22;;;;;;;2.40;0.75;;;;;;;5.84;93.12;102526.84;5057227;27;96843;-28
2024/01/23 07:50:47;;;;;;;2.00;0.70;;;;;;;5.88;93.28;102544.69;5055671;27;99351;-27
2024/01/23 07:53:13;;;;;;;2.58;0.75;;;;;;;5.87;93.50;102547.41;5055521;27;97795;-26
2024/01/23 07:55:40;;;;;;;0.22;0.15;;;;;;;5.83;93.77;102557.31;5055821;27;96690;-27
2024/01/23 07:58:05;;;;;;;3.83;0.65;;;;;;;5.84;93.80;102566.25;5054482;27;97569;-27
2024/01/23 08:00:31;;;;;;;1.30;0.43;;;;;;;5.74;93.98;102557.44;5054119;27;99363;-29
2024/01/23 08:02:56;;;;;;;0.40;0.38;;;;;;;5.71;93.86;102561.06;5054802;27;99377;-34
2024/01/23 08:05:22;;;;;;;6.03;0.70;;;;;;;5.76;94.15;102579.81;5055489;27;96594;-28
2024/01/23 08:07:48;;;;;;;0.45;0.25;;;;;;;5.68;94.11;102570.97;5053829;27;97065;-28
2024/01/23 08:10:14;;;;;;;0.57;0.38;;;;;;;5.71;94.29;102592.44;5054839;27;99872;-28
2024/01/23 08:12:39;;;;;;;0.45;0.45;;;;;;;5.69;94.40;102596.94;5055297;27;97351;-29
2024/01/23 08:15:05;;;;;;;0.68;0.15;;;;;;;5.70;94.58;102604.09;5053793;27;97020;-29
2024/01/23 08:17:30;;;;;;;1.67;0.25;;;;;;;5.70;94.69;102604.09;5052667;27;97318;-34
2024/01/23 08:19:56;;;;;;;0.75;0.47;;;;;;;5.78;94.60;102631.78;5051654;27;98964;-29
2024/01/23 08:22:21;;;;;;;1.30;0.80;;;;;;;5.80;94.76;102626.38;5051801;27;97756;-29
2024/01/23 08:24:47;;;;;;;5.68;0.30;;;;;;;5.72;94.58;102619.31;5051509;27;97105;-28
2024/01/23 08:27:12;;;;;;;0.17;0.17;;;;;;;5.80;94.35;102634.44;5051971;27;97005;-28
2024/01/23 08:29:37;;;;;;;6.43;0.63;;;;;;;5.78;94.31;102629.09;5052664;27;97954;-27
2024/01/23 08:32:03;;;;;;;2.13;0.95;;;;;;;5.81;94.28;102653.22;5055375;27;99242;-27
2024/01/23 08:34:29;;;;;;;1.08;0.50;;;;;;;5.82;94.22;102646.09;5056260;27;96563;-27
2024/01/23 08:36:54;;;;;;;0.30;0.30;;;;;;;5.81;94.27;102638.91;5056118;27;96749;-27
2024/01/23 08:39:19;;;;;;;4.72;0.95;;;;;;;5.86;94.14;102647.81;5055737;27;97943;-27
2024/01/23 08:41:45;;;;;;;0.90;0.28;;;;;;;5.84;94.19;102639.78;5056099;27;97356;-27
2024/01/23 08:44:10;;;;;;;0.52;0.40;;;;;;;5.88;94.24;102652.25;5055743;27;96633;-28
2024/01/23 08:46:36;;;;;;;6.50;0.65;;;;;;;5.85;94.31;102646.91;5055734;27;96831;-27
2024/01/23 08:49:01;;;;;;;0.95;0.45;;;;;;;5.91;94.26;102652.22;5055048;27;98124;-26
2024/01/23 08:51:28;;;;;;;1.42;0.28;;;;;;;5.92;93.91;102647.72;5055512;27;97906;-26
2024/01/23 08:53:54;;;;;;;3.03;0.47;;;;;;;5.92;94.01;102643.22;5054493;27;96868;-26
2024/01/23 08:56:23;;;;;;;9.05;0.82;;;;;;;5.98;93.52;102652.16;5053991;27;96795;-27
2024/01/23 08:58:49;;;;;;;1.00;0.40;;;;;;;5.89;94.28;102635.22;5055392;27;99348;-27
2024/01/23 09:01:16;;;;;;;1.33;0.32;;;;;;;5.93;94.52;102642.34;5054055;27;101570;-27
2024/01/23 09:03:42;;;;;;;2.10;0.25;;;;;;;5.99;94.39;102651.28;5053714;27;96560;-27
2024/01/23 09:06:09;;;;;;;0.60;0.35;;;;;;;5.99;94.50;102644.09;5054510;27;96855;-27
2024/01/23 09:08:40;;;;;;;1.33;0.45;;;;;;;6.04;94.67;102635.94;5053832;27;101045;-27
2024/01/23 09:11:06;;;;;;;0.82;0.50;;;;;;;6.05;94.96;102645.78;5055356;27;98079;-26
2024/01/23 09:13:31;;;;;;;0.80;0.35;;;;;;;6.12;94.95;102645.69;5053576;27;96944;-27
2024/01/23 09:15:58;;;;;;;2.42;0.50;;;;;;;6.16;95.03;102644.72;5055337;27;96720;-27
2024/01/23 09:18:23;;;;;;;3.05;0.57;;;;;;;6.16;94.96;102641.16;5053323;27;101051;-27
2024/01/23 09:20:49;;;;;;;2.08;0.88;;;;;;;6.16;94.31;102625.00;5055165;27;97268;-26
2024/01/23 09:23:14;;;;;;;0.20;0.20;;;;;;;6.27;94.73;102631.13;5055153;27;96557;-27
2024/01/23 09:25:40;;;;;;;0.70;0.15;;;;;;;6.29;94.66;102626.63;5055122;27;96814;-27
2024/01/23 09:28:05;;;;;;;0.40;0.40;;;;;;;6.35;94.48;102631.91;5055159;27;97955;-28
2024/01/23 09:30:30;;;;;;;0.63;0.40;;;;;;;6.45;94.90;102632.63;5055006;27;99698;-27
2024/01/23 09:32:58;;;;;;;0.35;0.32;;;;;;;6.52;94.75;102633.44;5055372;27;96782;-28
2024/01/23 09:35:23;;;;;;;0.73;0.40;;;;;;;6.54;94.67;102624.44;5055100;27;96820;-27
2024/01/23 09:37:48;;;;;;;1.27;0.73;;;;;;;6.59;94.59;102638.69;5054488;27;98019;-27
2024/01/23 09:40:14;;;;;;;1.33;0.30;;;;;;;6.64;94.58;102633.25;5054931;27;97572;-27
2024/01/23 09:42:40;;;;;;;11.00;0.68;;;;;;;6.71;94.18;102621.44;5055301;27;96493;-26
2024/01/23 09:45:17;;;;;;;0.10;0.10;;;;;;;6.78;93.85;102631.19;5054879;27;96875;-27
2024/01/23 09:47:47;;;;;;;3.53;0.45;;;;;;;6.84;93.91;102626.63;5054638;27;97463;-27
2024/01/23 09:50:15;;;;;;;1.80;0.90;;;;;;;6.91;93.99;102626.50;5054604;27;99282;-27
2024/01/23 09:52:43;;;;;;;0.40;0.13;;;;;;;7.04;93.49;102627.16;5054975;27;96660;-27
2024/01/23 09:55:08;;;;;;;3.53;0.50;;;;;;;7.09;93.30;102630.66;5053558;27;96814;-27
2024/01/23 09:57:35;;;;;;;0.43;0.13;;;;;;;7.11;93.05;102633.34;5054159;27;98728;-26
2024/01/23 10:00:00;;;;;;;3.30;0.30;;;;;;;7.18;92.95;102635.00;5052901;27;100974;-26
2024/01/23 10:02:27;;;;;;;7.03;0.75;;;;;;;7.25;92.70;102641.19;5054570;27;96484;-27
2024/01/23 10:04:53;;;;;;;1.15;0.25;;;;;;;7.25;92.57;102635.78;5054899;27;96780;-27
2024/01/23 10:07:19;;;;;;;2.00;1.25;;;;;;;7.36;92.90;102639.16;5054308;27;99895;-27
2024/01/23 10:09:47;;;;;;;7.57;0.73;;;;;;;7.43;92.68;102644.38;5054624;27;97270;-26
2024/01/23 10:12:13;;;;;;;1.67;0.43;;;;;;;7.54;92.40;102638.78;5053424;27;96590;-27
2024/01/23 10:14:45;;;;;;;0.40;0.30;;;;;;;7.55;92.05;102645.94;5054550;27;96803;-27
2024/01/23 10:17:10;;;;;;;1.52;0.73;;;;;;;7.60;91.91;102641.38;5056592;27;100854;-27
2024/01/23 10:19:37;;;;;;;4.63;1.15;;;;;;;7.66;91.88;102637.66;5058396;27;97756;-27
2024/01/23 10:22:03;;;;;;;2.03;0.80;;;;;;;7.61;91.48;102624.25;5056845;27;96712;-27
2024/01/23 10:24:29;;;;;;;0.85;0.57;;;;;;;7.60;91.59;102635.06;5056805;27;98391;-26
2024/01/23 10:26:55;;;;;;;0.35;0.20;;;;;;;7.57;91.79;102625.25;5055942;27;101164;-27
2024/01/23 10:29:20;;;;;;;0.70;0.40;;;;;;;7.60;91.62;102633.28;5057739;27;97934;-27
2024/01/23 10:31:46;;;;;;;1.75;0.77;;;;;;;7.62;91.59;102635.94;5058309;27;96700;-27
2024/01/23 10:34:12;;;;;;;4.70;0.68;;;;;;;7.62;91.71;102634.13;5058099;27;96762;-27
2024/01/23 10:36:39;;;;;;;3.30;1.00;;;;;;;7.63;91.78;102624.25;5057604;27;99222;-26
2024/01/23 10:39:06;;;;;;;3.47;0.75;;;;;;;7.74;91.78;102624.00;5056288;27;100787;-27
2024/01/23 10:41:33;;;;;;;2.03;0.55;;;;;;;7.96;91.13;102628.03;5056544;27;97226;-27
2024/01/23 10:44:01;;;;;;;0.30;0.30;;;;;;;8.15;91.06;102620.41;5056640;27;96871;-28
2024/01/23 10:46:28;;;;;;;1.08;0.43;;;;;;;8.23;90.28;102626.50;5056101;27;101041;-27
2024/01/23 10:48:54;;;;;;;10.70;0.40;;;;;;;8.27;90.11;102625.53;5055993;27;101225;-27
2024/01/23 10:51:20;;;;;;;0.60;0.13;;;;;;;8.18;90.15;102616.75;5057354;27;96496;-27
2024/01/23 10:53:46;;;;;;;6.25;1.08;;;;;;;8.23;90.19;102620.22;5055986;27;96907;-27
2024/01/23 10:56:14;;;;;;;4.07;0.70;;;;;;;8.11;90.45;102615.13;5057113;27;97520;-27
2024/01/23 10:58:41;;;;;;;4.47;0.52;;;;;;;8.05;90.34;102610.72;5055595;27;101071;-27
2024/01/23 11:01:11;;;;;;;2.22;0.35;;;;;;;8.00;90.53;102600.03;5056234;27;96589;-28
2024/01/23 11:03:38;;;;;;;1.85;0.32;;;;;;;7.95;90.91;102591.16;5055985;27;96862;-27
2024/01/23 11:06:18;;;;;;;1.80;0.57;;;;;;;7.97;90.80;102583.94;5055521;27;97356;-29
2024/01/23 11:08:52;;;;;;;3.45;0.80;;;;;;;7.87;90.94;102585.94;5054869;27;100434;-27
2024/01/23 11:11:40;;;;;;;0.85;0.63;;;;;;;7.94;91.28;102588.53;5055990;27;96731;-27
2024/01/23 11:14:21;;;;;;;0.80;0.38;;;;;;;7.90;91.50;102567.91;5056050;27;96880;-26
2024/01/23 11:17:09;;;;;;;4.28;0.77;;;;;;;7.96;91.04;102563.28;5057075;27;97819;-27
2024/01/23 11:19:40;;;;;;;7.28;1.05;;;;;;;8.04;90.91;102563.97;5046391;27;97890;-29
2024/01/23 11:22:05;;;;;;;1.57;0.70;;;;;;;8.03;90.60;102555.91;5057602;27;96808;-29
2024/01/23 11:24:46;;;;;;;2.72;0.63;;;;;;;8.23;90.59;102553.63;5057419;27;96729;-27
2024/01/23 11:27:22;;;;;;;2.88;0.93;;;;;;;8.42;89.95;102542.41;5055408;27;100817;-27